Petange, Luxembourg
Current Conditions -  °F | °C
As of 1:50 PM on Monday 22 Dec 2014 (Local Time) from ELLX Reporting Station
Drizzle Drizzle  
Wind Chill:   Ceiling: 400
Heat Index:   Visibility: 3mi
Dew Point:   Wind: 15mph
Humidity: 93%   Direction: 220°SW
Pressure: 30.24"   Gusts: NA
Location:  49.56°N, 5.88°E
Report Text: ELLX 221250Z 22013KT 190V260 5000 -DZ OVC004 06/05 Q1024 NOSIG
Loading
Personal Weather Stations






























Interactive Weather Map New forecast layout! Learn more

10-Day Weather Forecast

Advertisements
Track Severe Weather on mobile